Time;durP1;ratioP1;P1;durP2;ratioP2;P2;SDS_P1;SDS_P2;PMS_P1;PMS_P2;Temp;Humidity;BMP_temperature;BMP_pressure;BME280_temperature;BME280_humidity;BME280_pressure;Samples;Min_cycle;Max_cycle;Signal;HPM_P1;HPM_P2
2021/04/19 00:00:08;;;;;;;15.38;10.53;;;;;;;4.47;91.45;99408.38;1700502;83;21084;-60
2021/04/19 00:02:37;;;;;;;12.65;9.28;;;;;;;4.47;91.56;99404.95;1700533;84;21187;-60
2021/04/19 00:05:09;;;;;;;12.55;9.53;;;;;;;4.46;91.51;99400.67;1681227;84;21126;-60
2021/04/19 00:07:36;;;;;;;13.38;10.43;;;;;;;4.43;91.47;99396.42;1707898;84;21077;-60
2021/04/19 00:10:07;;;;;;;12.82;10.25;;;;;;;4.36;91.39;99394.86;1707842;84;21100;-60
2021/04/19 00:12:35;;;;;;;10.55;9.38;;;;;;;4.29;91.72;99399.69;1707806;84;21104;-60
2021/04/19 00:15:06;;;;;;;11.30;9.20;;;;;;;4.28;91.94;99398.42;1681070;84;21234;-60
2021/04/19 00:17:34;;;;;;;11.20;9.95;;;;;;;4.28;92.09;99401.84;1707851;84;21096;-60
2021/04/19 00:20:05;;;;;;;10.93;9.78;;;;;;;4.28;91.99;99401.84;1707838;82;21508;-60
2021/04/19 00:22:33;;;;;;;12.47;11.18;;;;;;;4.27;92.11;99401.88;1681124;85;22266;-60
2021/04/19 00:25:01;;;;;;;12.37;9.65;;;;;;;4.25;92.26;99404.91;1707854;84;21139;-60
2021/04/19 00:27:28;;;;;;;11.83;9.43;;;;;;;4.24;92.26;99398.06;1681107;85;21606;-60
2021/04/19 00:29:56;;;;;;;11.05;9.50;;;;;;;4.24;92.29;99399.34;1707773;84;21089;-60
2021/04/19 00:32:25;;;;;;;10.45;9.40;;;;;;;4.21;92.44;99396.38;1712449;82;21078;-60
2021/04/19 00:34:52;;;;;;;12.73;10.05;;;;;;;4.20;92.51;99401.59;1682050;84;21378;-60
2021/04/19 00:37:21;;;;;;;11.15;8.33;;;;;;;4.19;92.61;99405.88;1652967;86;21154;-60
2021/04/19 00:39:48;;;;;;;10.00;8.88;;;;;;;4.18;92.56;99405.91;1682120;84;21663;-60
2021/04/19 00:42:17;;;;;;;11.48;9.00;;;;;;;4.18;92.53;99399.47;1682068;85;21107;-60
2021/04/19 00:44:45;;;;;;;10.50;8.10;;;;;;;4.17;92.58;99399.06;1679166;85;21087;-60
2021/04/19 00:47:13;;;;;;;9.48;8.13;;;;;;;4.18;92.63;99403.33;1682105;85;21446;-60
2021/04/19 00:49:41;;;;;;;9.10;7.97;;;;;;;4.17;92.65;99401.20;1679099;85;21154;-60
2021/04/19 00:52:09;;;;;;;8.58;6.97;;;;;;;4.16;92.66;99400.78;1682062;85;21194;-61
2021/04/19 00:54:37;;;;;;;9.78;7.80;;;;;;;4.15;92.75;99395.22;1679221;85;21197;-60
2021/04/19 00:57:06;;;;;;;8.78;7.65;;;;;;;4.14;92.88;99397.38;1682070;85;21085;-60
2021/04/19 00:59:34;;;;;;;9.28;8.35;;;;;;;4.13;93.12;99397.81;1679145;85;21389;-60
2021/04/19 01:02:02;;;;;;;8.25;6.97;;;;;;;4.12;93.08;99400.41;1655058;85;21170;-60
2021/04/19 01:04:31;;;;;;;7.83;7.03;;;;;;;4.09;93.05;99394.88;1679143;85;21135;-61
2021/04/19 01:06:59;;;;;;;7.58;6.72;;;;;;;4.09;92.97;99397.89;1682013;85;21197;-61
2021/04/19 01:09:28;;;;;;;8.70;7.40;;;;;;;4.05;92.88;99401.38;1679243;85;21519;-61
2021/04/19 01:11:56;;;;;;;8.68;7.72;;;;;;;4.00;93.04;99390.30;1682056;84;21373;-61
2021/04/19 01:14:23;;;;;;;10.13;7.20;;;;;;;3.95;92.92;99398.55;1679108;84;21116;-60
2021/04/19 01:16:51;;;;;;;9.25;7.67;;;;;;;3.88;92.87;99397.80;1682177;84;21174;-60
2021/04/19 01:19:18;;;;;;;8.98;7.28;;;;;;;3.85;93.04;99396.55;1679231;85;21177;-61
2021/04/19 01:21:47;;;;;;;8.65;7.58;;;;;;;3.83;93.24;99394.87;1682226;83;21106;-61
2021/04/19 01:24:15;;;;;;;8.85;7.95;;;;;;;3.84;93.42;99399.99;1679266;85;23597;-61
2021/04/19 01:26:44;;;;;;;10.15;7.85;;;;;;;3.85;93.46;99395.27;1682247;85;21094;-61
2021/04/19 01:29:11;;;;;;;9.78;7.75;;;;;;;3.89;93.42;99396.06;1679281;85;21129;-61
2021/04/19 01:31:40;;;;;;;12.20;8.15;;;;;;;3.90;93.35;99393.48;1682124;83;21158;-61
2021/04/19 01:34:09;;;;;;;11.65;9.20;;;;;;;3.91;93.32;99396.46;1679271;85;21149;-61
2021/04/19 01:36:39;;;;;;;9.68;8.68;;;;;;;3.92;93.28;99395.59;1682181;85;21345;-61
2021/04/19 01:39:08;;;;;;;9.15;7.75;;;;;;;3.92;93.21;99393.02;1632432;85;21112;-61
2021/04/19 01:41:35;;;;;;;8.23;7.42;;;;;;;3.90;93.15;99391.34;1682177;85;21079;-61
2021/04/19 01:44:03;;;;;;;10.85;8.05;;;;;;;3.89;93.26;99395.63;1655230;85;21111;-61
2021/04/19 01:46:31;;;;;;;12.10;9.40;;;;;;;3.89;93.51;99390.48;1679260;85;21599;-61
2021/04/19 01:48:59;;;;;;;11.22;9.60;;;;;;;3.90;93.53;99395.20;1682218;85;21452;-61
2021/04/19 01:51:27;;;;;;;10.08;8.65;;;;;;;3.88;93.38;99391.80;1679179;85;22005;-61
2021/04/19 01:53:55;;;;;;;8.53;7.62;;;;;;;3.86;93.22;99387.95;1682196;85;21095;-61
2021/04/19 01:56:23;;;;;;;9.55;8.30;;;;;;;3.85;93.09;99388.83;1686530;84;21094;-61
2021/04/19 01:58:50;;;;;;;10.18;9.18;;;;;;;3.83;92.92;99385.42;1682203;83;21159;-61
2021/04/19 02:01:18;;;;;;;14.80;9.25;;;;;;;3.83;92.99;99391.01;1679243;85;21424;-61
2021/04/19 02:04:01;;;;;;;9.30;8.03;;;;;;;3.81;92.85;99386.73;1682126;84;21090;-61
2021/04/19 02:06:56;;;;;;;9.95;8.18;;;;;;;3.79;92.76;99383.37;1679348;84;21153;-60
2021/04/19 02:09:39;;;;;;;10.65;8.65;;;;;;;3.78;92.71;99382.10;1679300;85;21506;-61
2021/04/19 02:12:40;;;;;;;;;;;;;;;3.75;92.56;99382.99;1652714;85;21090;-61
2021/04/19 02:15:18;;;;;;;11.53;8.88;;;;;;;3.71;92.32;99383.06;1682197;84;21287;-61
2021/04/19 02:18:14;;;;;;;9.78;8.20;;;;;;;3.62;92.13;99384.47;1681951;84;21082;-61
2021/04/19 02:20:54;;;;;;;10.05;7.78;;;;;;;3.56;91.87;99382.00;1679272;85;21166;-61
2021/04/19 02:23:32;;;;;;;9.23;8.00;;;;;;;3.48;91.87;99382.55;1681998;85;21145;-61
2021/04/19 02:26:23;;;;;;;11.00;8.73;;;;;;;3.42;91.69;99380.89;1679249;84;21118;-61
2021/04/19 02:28:58;;;;;;;11.20;8.83;;;;;;;3.37;91.68;99387.84;1681563;84;21400;-61
2021/04/19 02:31:25;;;;;;;7.87;7.05;;;;;;;3.32;91.66;99394.77;1679083;84;21099;-61
2021/04/19 02:33:54;;;;;;;10.45;7.60;;;;;;;3.27;91.61;99392.25;1682198;85;21519;-61
2021/04/19 02:36:24;;;;;;;11.00;8.33;;;;;;;3.24;91.57;99395.28;1677907;84;21090;-61
2021/04/19 02:38:53;;;;;;;12.63;8.78;;;;;;;3.20;91.55;99394.94;1679260;85;21166;-61
2021/04/19 02:41:22;;;;;;;11.12;9.43;;;;;;;3.15;91.57;99392.42;1682158;85;21610;-61
2021/04/19 02:43:49;;;;;;;10.08;8.98;;;;;;;3.13;91.62;99393.30;1679257;85;21138;-61
2021/04/19 02:46:19;;;;;;;11.95;10.45;;;;;;;3.10;91.58;99383.91;1681931;85;21213;-61
2021/04/19 02:48:47;;;;;;;28.55;22.17;;;;;;;3.07;91.50;99391.22;1627617;86;21086;-61
2021/04/19 02:51:17;;;;;;;51.68;17.57;;;;;;;3.04;91.48;99386.55;1682269;84;21502;-61
2021/04/19 02:53:44;;;;;;;15.23;9.78;;;;;;;3.00;91.29;99391.30;1653117;86;21388;-61
2021/04/19 02:56:11;;;;;;;23.40;8.20;;;;;;;2.95;91.22;99389.25;1682053;85;21174;-61
2021/04/19 02:58:55;;;;;;;8.93;8.00;;;;;;;2.89;91.27;99390.59;1679206;85;21161;-61
2021/04/19 03:01:28;;;;;;;9.00;7.70;;;;;;;2.85;91.46;99391.06;1682014;84;21102;-61
2021/04/19 03:03:59;;;;;;;8.53;7.72;;;;;;;2.84;91.61;99391.92;1686619;84;21098;-61
2021/04/19 03:06:29;;;;;;;10.23;8.55;;;;;;;2.82;91.67;99398.80;1681941;85;21453;-61
2021/04/19 03:09:00;;;;;;;9.10;8.20;;;;;;;2.82;91.88;99394.09;1671920;85;21491;-61
2021/04/19 03:11:46;;;;;;;8.45;7.28;;;;;;;2.83;91.95;99395.36;1682350;85;21149;-61
2021/04/19 03:14:14;;;;;;;7.60;6.80;;;;;;;2.85;92.09;99395.34;1671882;85;21150;-61
2021/04/19 03:16:57;;;;;;;9.08;7.58;;;;;;;2.84;92.16;99392.36;1682120;84;21142;-61
2021/04/19 03:19:27;;;;;;;10.25;7.00;;;;;;;2.81;92.19;99397.53;1671743;85;21232;-61
2021/04/19 03:21:55;;;;;;;8.83;7.92;;;;;;;2.77;92.30;99401.88;1650033;85;21534;-61
2021/04/19 03:24:24;;;;;;;8.63;7.75;;;;;;;2.74;92.19;99402.75;1679172;85;21079;-61
2021/04/19 03:26:53;;;;;;;8.48;7.37;;;;;;;2.73;92.31;99400.20;1681997;85;21102;-61
2021/04/19 03:29:22;;;;;;;7.60;6.90;;;;;;;2.78;92.60;99401.44;1679309;85;21570;-61
2021/04/19 03:31:53;;;;;;;8.73;7.60;;;;;;;2.89;93.05;99403.44;1683031;84;21217;-61
2021/04/19 03:34:25;;;;;;;15.23;8.60;;;;;;;3.09;93.56;99401.48;1700359;84;21564;-61
2021/04/19 03:36:57;;;;;;;9.45;7.33;;;;;;;3.32;93.68;99405.05;1700446;84;21486;-61
2021/04/19 03:39:25;;;;;;;8.43;7.53;;;;;;;3.55;93.13;99407.31;1700378;84;21512;-61
2021/04/19 03:41:55;;;;;;;8.23;7.40;;;;;;;3.64;92.66;99402.02;1700295;84;21140;-61
2021/04/19 03:44:25;;;;;;;9.23;7.70;;;;;;;3.76;92.75;99404.42;1700287;84;22651;-61
2021/04/19 03:46:55;;;;;;;8.98;8.08;;;;;;;3.85;92.43;99401.70;1700313;83;21159;-61
2021/04/19 03:49:28;;;;;;;13.62;9.50;;;;;;;3.89;91.81;99402.50;1700182;84;21105;-61
2021/04/19 03:52:04;;;;;;;10.90;8.65;;;;;;;3.92;91.85;99412.31;1699062;84;21160;-60
2021/04/19 03:54:36;;;;;;;9.35;8.30;;;;;;;4.03;91.99;99410.41;1700382;84;21560;-60
2021/04/19 03:57:07;;;;;;;10.25;8.60;;;;;;;4.14;91.94;99408.97;1700390;84;21423;-60
2021/04/19 03:59:35;;;;;;;12.30;8.43;;;;;;;4.25;91.85;99410.05;1701399;84;21118;-60
2021/04/19 04:02:05;;;;;;;9.00;7.80;;;;;;;4.36;91.53;99412.88;1700217;83;21152;-61
2021/04/19 04:04:35;;;;;;;11.12;8.28;;;;;;;4.46;90.99;99415.69;1698146;84;21100;-61
2021/04/19 04:07:05;;;;;;;11.45;9.65;;;;;;;4.55;90.72;99417.27;1700214;84;21114;-61
2021/04/19 04:09:42;;;;;;;23.80;9.58;;;;;;;4.57;90.51;99416.80;1700244;84;21207;-60
2021/04/19 04:12:11;;;;;;;14.18;10.90;;;;;;;4.60;90.27;99414.58;1700236;84;21151;-60
2021/04/19 04:14:54;;;;;;;11.55;9.40;;;;;;;4.62;90.16;99421.41;1678488;84;21184;-61
2021/04/19 04:17:24;;;;;;;13.90;9.38;;;;;;;4.64;90.02;99427.38;1700199;84;21068;-60
2021/04/19 04:20:11;;;;;;;12.70;9.85;;;;;;;4.69;90.09;99426.02;1700191;84;21196;-60
2021/04/19 04:22:40;;;;;;;11.73;9.90;;;;;;;4.78;90.34;99428.00;1700177;84;21244;-61
2021/04/19 04:25:10;;;;;;;11.83;10.53;;;;;;;4.88;90.20;99425.23;1700285;84;21156;-60
2021/04/19 04:27:37;;;;;;;11.90;10.23;;;;;;;4.95;89.91;99428.97;1700314;83;21492;-60
2021/04/19 04:30:06;;;;;;;12.73;9.63;;;;;;;5.03;89.73;99425.78;1700258;84;21088;-60
2021/04/19 04:32:39;;;;;;;16.15;9.18;;;;;;;5.09;89.31;99427.39;1700163;83;21179;-60
2021/04/19 04:35:11;;;;;;;20.23;9.48;;;;;;;5.09;89.22;99426.95;1700999;84;21206;-60
2021/04/19 04:37:39;;;;;;;22.67;9.75;;;;;;;5.09;89.28;99429.97;1700228;84;21629;-60
2021/04/19 04:40:13;;;;;;;12.33;8.23;;;;;;;5.12;88.92;99430.77;1700295;84;21177;-60
2021/04/19 04:42:41;;;;;;;10.40;8.08;;;;;;;5.08;88.48;99421.83;1701372;84;21156;-60
2021/04/19 04:45:10;;;;;;;13.38;9.45;;;;;;;5.04;88.70;99423.61;1700244;83;21183;-60
2021/04/19 04:47:45;;;;;;;14.25;9.95;;;;;;;5.08;88.87;99419.25;1700326;84;22267;-61
2021/04/19 04:50:26;;;;;;;12.20;9.88;;;;;;;5.15;89.13;99420.84;1700333;84;21172;-60
2021/04/19 04:53:01;;;;;;;10.58;9.48;;;;;;;5.27;89.25;99415.86;1700480;84;21609;-61
2021/04/19 04:55:30;;;;;;;27.30;9.80;;;;;;;5.36;88.79;99416.52;1700049;83;21194;-61
2021/04/19 04:57:57;;;;;;;12.88;9.58;;;;;;;5.45;88.75;99415.02;1678222;84;21072;-60
2021/04/19 05:00:24;;;;;;;12.25;9.48;;;;;;;5.57;88.62;99413.07;1700329;83;21525;-61
2021/04/19 05:02:51;;;;;;;9.80;8.80;;;;;;;5.74;88.31;99412.25;1700273;84;21183;-61
2021/04/19 05:05:19;;;;;;;9.58;8.40;;;;;;;5.93;87.52;99413.55;1700424;84;21643;-61
2021/04/19 05:07:46;;;;;;;8.95;7.30;;;;;;;6.13;87.23;99410.05;1700369;84;21097;-62
2021/04/19 05:10:14;;;;;;;7.78;6.83;;;;;;;6.31;85.66;99415.20;1700371;84;21105;-60
2021/04/19 05:12:42;;;;;;;11.00;7.50;;;;;;;6.37;84.79;99414.20;1700366;84;21231;-62
2021/04/19 05:15:13;;;;;;;7.97;7.22;;;;;;;6.43;84.36;99409.71;1700285;84;21163;-61
2021/04/19 05:17:44;;;;;;;7.42;6.72;;;;;;;6.56;84.06;99410.26;1700319;84;21210;-61
2021/04/19 05:20:16;;;;;;;13.43;7.80;;;;;;;6.73;83.41;99413.24;1700262;84;21188;-61
2021/04/19 05:22:44;;;;;;;7.40;6.70;;;;;;;6.99;83.06;99407.81;1700329;84;21076;-61
2021/04/19 05:25:13;;;;;;;7.65;6.95;;;;;;;7.21;82.24;99412.30;1700299;84;21592;-62
2021/04/19 05:27:40;;;;;;;12.07;7.10;;;;;;;7.43;81.90;99409.09;1700310;84;21168;-62
2021/04/19 05:30:10;;;;;;;15.38;7.17;;;;;;;7.64;81.34;99407.16;1700287;84;21084;-61
2021/04/19 05:32:37;;;;;;;8.03;6.45;;;;;;;7.82;80.23;99405.74;1678074;83;21322;-63
2021/04/19 05:35:07;;;;;;;13.88;6.10;;;;;;;7.94;78.21;99410.11;1700314;84;21182;-62
2021/04/19 05:37:34;;;;;;;17.75;6.78;;;;;;;7.98;77.58;99419.08;1700276;83;21521;-61
2021/04/19 05:40:05;;;;;;;9.00;6.50;;;;;;;8.03;76.78;99421.05;1700328;83;21207;-61
2021/04/19 05:42:32;;;;;;;13.43;6.85;;;;;;;8.10;76.44;99425.16;1678194;84;21167;-61
2021/04/19 05:45:00;;;;;;;6.62;6.03;;;;;;;8.27;75.97;99421.11;1700288;84;21215;-61
2021/04/19 05:47:27;;;;;;;7.00;6.05;;;;;;;8.45;74.96;99418.39;1700303;84;21085;-61
2021/04/19 05:49:55;;;;;;;8.13;6.28;;;;;;;8.61;74.68;99418.26;1700290;84;21343;-61
2021/04/19 05:52:24;;;;;;;12.33;6.55;;;;;;;8.79;74.41;99415.95;1700160;84;21156;-62
2021/04/19 05:54:51;;;;;;;11.15;7.17;;;;;;;8.96;73.85;99415.75;1700240;84;21545;-61
2021/04/19 05:57:58;;;;;;;8.03;7.22;;;;;;;9.14;73.15;99417.28;1700227;84;21505;-63
2021/04/19 06:00:50;;;;;;;18.30;8.73;;;;;;;9.27;72.20;99419.81;1693222;84;21508;-62
2021/04/19 06:03:28;;;;;;;7.00;6.20;;;;;;;9.39;72.30;99413.34;1669175;86;21399;-62
2021/04/19 06:06:11;;;;;;;8.90;7.85;;;;;;;9.47;71.11;99413.42;1700808;83;21120;-62
2021/04/19 06:08:47;;;;;;;15.43;8.23;;;;;;;9.56;71.14;99405.75;1706401;83;21174;-61
2021/04/19 06:11:21;;;;;;;7.83;5.70;;;;;;;9.76;70.69;99411.02;1728015;82;21194;-61
2021/04/19 06:13:56;;;;;;;9.10;5.95;;;;;;;9.96;69.46;99409.78;1699075;83;21200;-61
2021/04/19 06:16:24;;;;;;;6.33;5.70;;;;;;;10.08;68.09;99408.44;1670418;86;21384;-63
2021/04/19 06:18:52;;;;;;;6.33;5.35;;;;;;;10.10;67.11;99396.69;1698748;84;21216;-63
2021/04/19 06:21:19;;;;;;;6.75;5.70;;;;;;;10.01;65.91;99400.03;1684283;85;21233;-62
2021/04/19 06:23:47;;;;;;;7.03;5.55;;;;;;;9.87;66.44;99402.34;1729406;83;21214;-61
2021/04/19 06:26:15;;;;;;;6.67;5.80;;;;;;;9.83;66.86;99398.17;1699502;84;21156;-62
2021/04/19 06:28:42;;;;;;;10.40;6.33;;;;;;;9.84;67.37;99395.97;1684542;85;21401;-62
2021/04/19 06:31:12;;;;;;;6.08;5.58;;;;;;;9.89;67.49;99395.79;1617907;85;21169;-62
2021/04/19 06:33:40;;;;;;;8.08;5.92;;;;;;;9.97;67.33;99398.94;1730842;82;21170;-61
2021/04/19 06:36:11;;;;;;;6.67;6.10;;;;;;;10.06;66.58;99400.30;1699685;84;21199;-61
2021/04/19 06:38:39;;;;;;;10.10;6.72;;;;;;;10.08;65.68;99395.89;1670163;85;21117;-61
2021/04/19 06:41:07;;;;;;;8.53;6.72;;;;;;;10.11;65.67;99390.58;1693717;84;21401;-63
2021/04/19 06:43:35;;;;;;;9.50;6.20;;;;;;;10.18;65.62;99395.47;1632078;84;21509;-63
2021/04/19 06:46:02;;;;;;;9.25;6.40;;;;;;;10.19;64.56;99391.97;1721582;82;21563;-62
2021/04/19 06:48:31;;;;;;;6.40;5.90;;;;;;;10.13;64.22;99392.66;1717222;82;21143;-63
2021/04/19 06:50:58;;;;;;;16.07;6.83;;;;;;;10.05;64.10;99394.27;1717463;82;21059;-61
2021/04/19 06:53:25;;;;;;;6.45;5.95;;;;;;;9.97;64.29;99392.45;1691579;84;23601;-62
2021/04/19 06:55:54;;;;;;;6.70;6.10;;;;;;;9.83;64.02;99392.98;1663556;86;21110;-63
2021/04/19 06:58:21;;;;;;;6.80;6.20;;;;;;;9.70;64.71;99390.48;1702332;82;21134;-62
2021/04/19 07:00:50;;;;;;;7.35;6.58;;;;;;;9.62;64.48;99393.36;1699684;84;21159;-61
2021/04/19 07:03:20;;;;;;;7.28;6.50;;;;;;;9.55;64.60;99394.52;1660761;85;21214;-62
2021/04/19 07:05:50;;;;;;;5.90;5.33;;;;;;;9.55;65.30;99395.82;1731318;82;22361;-65
2021/04/19 07:08:22;;;;;;;5.95;5.45;;;;;;;9.66;64.72;99391.50;1699375;83;21112;-61
2021/04/19 07:10:52;;;;;;;6.27;5.77;;;;;;;9.77;64.07;99397.14;1677859;84;21164;-62
2021/04/19 07:13:20;;;;;;;6.30;5.80;;;;;;;9.84;63.68;99393.82;1732203;82;21169;-63
2021/04/19 07:15:48;;;;;;;6.75;6.12;;;;;;;9.97;63.67;99392.45;1732278;82;21071;-61
2021/04/19 07:18:15;;;;;;;5.58;5.17;;;;;;;10.12;63.86;99383.17;1674391;83;21203;-62
2021/04/19 07:20:44;;;;;;;6.55;5.95;;;;;;;10.39;63.37;99394.23;1646325;86;21119;-64
2021/04/19 07:23:13;;;;;;;5.97;5.30;;;;;;;10.63;62.73;99381.46;1664105;84;21155;-62
2021/04/19 07:25:43;;;;;;;6.10;5.60;;;;;;;10.87;62.20;99384.76;1728260;82;21177;-64
2021/04/19 07:28:10;;;;;;;5.75;5.25;;;;;;;11.13;61.02;99378.41;1727809;82;21151;-63
2021/04/19 07:30:37;;;;;;;6.25;5.47;;;;;;;11.29;60.27;99372.42;1705486;84;21362;-63
2021/04/19 07:33:05;;;;;;;5.83;5.33;;;;;;;11.38;59.61;99379.83;1650700;84;21128;-62
2021/04/19 07:35:33;;;;;;;6.53;5.58;;;;;;;11.38;58.80;99371.17;1685212;85;21138;-62
2021/04/19 07:38:05;;;;;;;6.70;5.70;;;;;;;11.30;58.98;99368.06;1729163;83;22062;-62
2021/04/19 07:40:34;;;;;;;6.33;5.72;;;;;;;11.27;58.85;99366.90;1730005;83;21130;-63
2021/04/19 07:43:14;;;;;;;6.55;5.53;;;;;;;11.29;58.85;99374.19;1723229;82;21337;-63
2021/04/19 07:46:03;;;;;;;6.10;5.60;;;;;;;11.39;58.14;99363.72;1683098;83;21184;-62
2021/04/19 07:48:46;;;;;;;11.28;5.25;;;;;;;11.55;58.41;99364.72;1669420;85;21178;-63
2021/04/19 07:51:37;;;;;;;6.55;5.95;;;;;;;11.63;57.53;99367.78;1701062;84;21160;-62
2021/04/19 07:54:18;;;;;;;8.68;6.40;;;;;;;11.62;57.22;99375.67;1717747;83;21076;-62
2021/04/19 07:56:53;;;;;;;6.62;5.97;;;;;;;11.54;56.71;99366.09;1700218;84;22271;-63
2021/04/19 07:59:29;;;;;;;6.12;5.53;;;;;;;11.40;57.36;99361.05;1683650;85;21193;-64
2021/04/19 08:02:04;;;;;;;20.57;6.80;;;;;;;11.38;57.87;99359.45;1730136;83;21137;-64
2021/04/19 08:04:36;;;;;;;13.22;6.28;;;;;;;11.48;58.66;99354.65;1700175;84;21589;-62
2021/04/19 08:07:04;;;;;;;6.33;5.75;;;;;;;11.63;57.76;99355.22;1685241;85;21059;-62
2021/04/19 08:09:32;;;;;;;8.90;5.97;;;;;;;11.77;56.95;99350.70;1717402;82;21395;-61
2021/04/19 08:12:08;;;;;;;6.55;5.87;;;;;;;11.78;56.13;99351.09;1700861;84;21985;-64
2021/04/19 08:14:52;;;;;;;6.00;5.33;;;;;;;11.73;56.17;99356.03;1716575;83;21536;-62
2021/04/19 08:17:20;;;;;;;10.90;5.92;;;;;;;11.76;56.74;99348.55;1730107;83;21159;-62
2021/04/19 08:19:47;;;;;;;6.72;6.12;;;;;;;11.80;55.76;99353.98;1700178;84;21077;-63
2021/04/19 08:22:20;;;;;;;6.25;5.65;;;;;;;11.83;55.87;99354.30;1637315;84;21226;-62
2021/04/19 08:24:47;;;;;;;6.60;5.93;;;;;;;11.94;56.10;99352.03;1714204;83;21180;-62
2021/04/19 08:27:26;;;;;;;5.67;5.22;;;;;;;12.01;55.71;99349.03;1700898;84;21097;-61
2021/04/19 08:29:54;;;;;;;6.55;5.90;;;;;;;12.14;55.90;99352.35;1703519;82;21061;-61
2021/04/19 08:32:22;;;;;;;6.90;6.30;;;;;;;12.27;54.10;99349.05;1696371;84;21247;-63
2021/04/19 08:34:52;;;;;;;6.50;5.90;;;;;;;12.24;53.62;99353.11;1680180;85;39328;-63
2021/04/19 08:37:21;;;;;;;6.97;5.83;;;;;;;12.16;53.05;99356.58;1677958;85;22000;-62
2021/04/19 08:39:49;;;;;;;6.75;5.97;;;;;;;12.05;53.56;99347.96;1678053;85;21110;-61
2021/04/19 08:42:18;;;;;;;8.28;6.20;;;;;;;12.03;54.50;99343.28;1677865;85;21119;-63
2021/04/19 08:44:47;;;;;;;6.55;5.95;;;;;;;12.14;54.45;99336.71;1678073;84;21691;-62
2021/04/19 08:47:19;;;;;;;6.15;5.65;;;;;;;12.28;53.85;99348.13;1660505;85;21453;-62
2021/04/19 08:49:47;;;;;;;7.20;5.45;;;;;;;12.42;53.44;99339.59;1666054;84;21185;-61
2021/04/19 08:52:15;;;;;;;8.83;6.10;;;;;;;12.57;52.94;99337.53;1672995;85;21079;-64
2021/04/19 08:54:44;;;;;;;10.30;6.85;;;;;;;12.72;52.69;99338.48;1648633;87;21152;-61
2021/04/19 08:57:12;;;;;;;11.33;6.85;;;;;;;12.90;52.79;99340.13;1647566;87;21207;-61
2021/04/19 08:59:43;;;;;;;6.35;5.78;;;;;;;13.09;52.69;99334.77;1626563;87;21385;-61
2021/04/19 09:02:16;;;;;;;5.97;5.47;;;;;;;13.34;52.42;99330.41;1659915;85;21653;-63
2021/04/19 09:05:13;;;;;;;6.20;5.67;;;;;;;13.54;50.42;99335.37;1647636;86;21090;-63
2021/04/19 09:07:47;;;;;;;7.87;7.00;;;;;;;13.60;49.35;99339.39;1650905;84;21725;-64
2021/04/19 09:10:17;;;;;;;10.80;8.80;;;;;;;13.58;49.57;99332.13;1646957;87;21185;-61
2021/04/19 09:12:47;;;;;;;9.58;6.95;;;;;;;13.58;49.07;99332.97;1618506;88;22230;-62
2021/04/19 09:15:29;;;;;;;6.70;6.10;;;;;;;13.59;49.92;99323.36;1647663;85;21115;-62
2021/04/19 09:18:09;;;;;;;7.37;6.42;;;;;;;13.66;50.00;99325.98;1647799;87;21075;-62
2021/04/19 09:20:51;;;;;;;7.92;7.22;;;;;;;13.86;49.59;99327.47;1647748;86;21106;-61
2021/04/19 09:23:31;;;;;;;;;;;;;;;14.09;49.47;99324.38;1649834;87;21703;-63
2021/04/19 09:26:01;;;;;;;6.40;5.85;;;;;;;14.26;48.92;99323.39;1646920;87;22108;-62
2021/04/19 09:28:43;;;;;;;5.97;5.47;;;;;;;14.35;48.12;99334.17;1646777;86;21181;-62
2021/04/19 09:31:12;;;;;;;8.90;8.00;;;;;;;14.38;46.81;99320.91;1647336;87;21178;-63
2021/04/19 09:33:39;;;;;;;14.98;6.95;;;;;;;14.28;47.16;99334.61;1651859;84;21078;-62
2021/04/19 09:36:09;;;;;;;10.43;6.17;;;;;;;14.07;46.97;99328.86;1655031;85;21547;-62
2021/04/19 09:38:48;;;;;;;10.03;5.55;;;;;;;13.91;47.33;99328.06;1674304;85;21423;-62
2021/04/19 09:41:13;;;;;;;5.90;5.40;;;;;;;13.80;47.69;99326.88;1652482;85;21187;-62
2021/04/19 09:43:55;;;;;;;8.13;5.87;;;;;;;13.80;47.85;99326.04;1653440;85;21182;-61
2021/04/19 09:46:28;;;;;;;6.33;5.72;;;;;;;13.91;47.98;99328.91;1682098;85;21149;-62
2021/04/19 09:49:04;;;;;;;4.80;4.40;;;;;;;14.12;48.30;99326.36;1626426;87;21088;-63
2021/04/19 09:51:40;;;;;;;5.35;4.87;;;;;;;14.29;46.44;99324.06;1654520;86;21370;-61
2021/04/19 09:54:13;;;;;;;6.70;5.78;;;;;;;14.27;46.35;99327.23;1651519;86;21149;-62
2021/04/19 09:56:50;;;;;;;10.18;5.40;;;;;;;14.22;46.87;99325.34;1661667;84;21169;-63
2021/04/19 09:59:20;;;;;;;5.95;5.35;;;;;;;14.22;47.04;99329.73;1673418;84;21505;-62
2021/04/19 10:01:51;;;;;;;5.85;5.35;;;;;;;14.16;46.44;99325.72;1641081;87;21127;-61
2021/04/19 10:04:19;;;;;;;6.03;5.45;;;;;;;13.98;46.74;99328.09;1679038;85;22189;-63
2021/04/19 10:06:53;;;;;;;6.20;5.70;;;;;;;13.86;47.45;99323.55;1652990;86;21201;-62
2021/04/19 10:09:23;;;;;;;7.60;5.20;;;;;;;13.77;47.44;99323.63;1675096;84;21176;-62
2021/04/19 10:12:01;;;;;;;8.65;5.10;;;;;;;13.68;47.46;99326.28;1674463;85;21215;-63
2021/04/19 10:14:39;;;;;;;6.35;5.75;;;;;;;13.64;47.62;99335.22;1642889;86;21120;-62
2021/04/19 10:17:21;;;;;;;6.58;5.58;;;;;;;13.58;47.60;99322.52;1648607;85;21453;-62
2021/04/19 10:19:50;;;;;;;5.72;5.22;;;;;;;13.54;47.90;99324.92;1659834;84;21231;-64
2021/04/19 10:22:18;;;;;;;4.92;4.42;;;;;;;13.51;48.11;99318.55;1676820;83;21169;-63
2021/04/19 10:24:57;;;;;;;6.15;5.65;;;;;;;13.49;47.98;99327.40;1677163;85;21158;-62
2021/04/19 10:27:31;;;;;;;6.90;4.47;;;;;;;13.55;47.53;99320.53;1674274;85;21174;-63
2021/04/19 10:30:17;;;;;;;6.00;5.12;;;;;;;13.62;47.65;99316.63;1675859;83;22824;-68
2021/04/19 10:32:44;;;;;;;5.58;5.10;;;;;;;13.72;48.36;99309.50;1648889;86;21777;-66
2021/04/19 10:35:42;;;;;;;7.95;4.78;;;;;;;13.84;47.18;99305.34;1673629;85;21054;-64
2021/04/19 10:38:12;;;;;;;8.20;4.85;;;;;;;13.88;47.34;99306.85;1676416;83;21236;-62
2021/04/19 10:40:40;;;;;;;7.12;4.60;;;;;;;14.08;47.65;99310.93;1671597;83;21242;-62
2021/04/19 10:43:13;;;;;;;6.33;4.03;;;;;;;14.34;46.84;99304.17;1705172;82;21675;-63
2021/04/19 10:45:43;;;;;;;3.62;3.33;;;;;;;14.58;46.23;99297.52;1698057;82;21214;-64
2021/04/19 10:48:25;;;;;;;4.25;3.83;;;;;;;14.74;44.53;99298.72;1697258;84;21477;-64
2021/04/19 10:50:55;;;;;;;4.08;3.72;;;;;;;14.75;44.36;99303.02;1701592;82;21256;-63
2021/04/19 10:53:37;;;;;;;6.30;4.42;;;;;;;14.54;43.37;99294.70;1705255;83;22217;-65
2021/04/19 10:56:07;;;;;;;6.00;5.35;;;;;;;14.24;45.16;99297.32;1708588;83;22389;-62
2021/04/19 10:58:37;;;;;;;5.25;4.75;;;;;;;14.03;45.96;99299.89;1708938;82;21292;-65
2021/04/19 11:01:05;;;;;;;4.45;4.08;;;;;;;13.87;46.40;99300.41;1708602;82;21183;-66
2021/04/19 11:03:36;;;;;;;4.87;4.37;;;;;;;13.72;46.76;99296.91;1708356;82;21736;-64
2021/04/19 11:06:10;;;;;;;6.60;3.52;;;;;;;13.69;46.84;99291.84;1705349;83;21198;-62
2021/04/19 11:09:10;;;;;;;4.42;3.30;;;;;;;13.73;46.71;99289.44;1704310;83;21237;-66
2021/04/19 11:11:45;;;;;;;9.25;3.95;;;;;;;13.89;45.96;99281.09;1701248;82;21175;-62
2021/04/19 11:14:18;;;;;;;4.85;3.40;;;;;;;14.20;44.96;99283.20;1703534;82;21202;-63
2021/04/19 11:17:02;;;;;;;;;;;;;;;14.51;44.11;99278.33;1708628;82;21457;-62
2021/04/19 11:19:44;;;;;;;4.08;3.15;;;;;;;14.72;42.56;99270.48;1708750;82;20550;-66
2021/04/19 11:22:27;;;;;;;4.67;2.62;;;;;;;14.88;42.20;99265.13;1709092;83;22760;-63
2021/04/19 11:25:26;;;;;;;20.77;5.12;;;;;;;15.07;41.36;99269.13;1707000;83;21241;-63
2021/04/19 11:28:19;;;;;;;4.28;3.87;;;;;;;15.07;41.21;99264.35;1703954;82;21202;-64
2021/04/19 11:30:49;;;;;;;3.30;3.00;;;;;;;14.97;41.56;99264.58;1700815;82;21216;-62
2021/04/19 11:33:25;;;;;;;4.22;3.62;;;;;;;14.85;42.10;99261.39;1709395;83;21499;-66
2021/04/19 11:36:01;;;;;;;4.47;3.27;;;;;;;14.64;42.70;99267.02;1710142;83;21366;-65
2021/04/19 11:38:31;;;;;;;7.42;6.53;;;;;;;14.37;43.43;99266.90;1711869;81;21219;-64
2021/04/19 11:41:04;;;;;;;4.55;3.95;;;;;;;14.16;44.16;99268.17;1711044;83;21182;-64
2021/04/19 11:43:33;;;;;;;3.77;3.47;;;;;;;14.07;44.17;99264.78;1649773;86;21205;-64
2021/04/19 11:46:05;;;;;;;3.70;3.37;;;;;;;14.12;44.42;99261.44;1678947;85;21650;-63
2021/04/19 11:48:36;;;;;;;3.30;3.00;;;;;;;14.26;44.49;99253.60;1650213;86;22297;-62
2021/04/19 11:51:06;;;;;;;5.45;2.80;;;;;;;14.48;43.85;99244.03;1678130;85;21225;-62
2021/04/19 11:53:37;;;;;;;6.28;3.40;;;;;;;14.74;42.87;99247.67;1649747;86;21209;-65
2021/04/19 11:56:06;;;;;;;7.78;3.95;;;;;;;14.89;42.24;99245.87;1679201;84;21514;-63
2021/04/19 11:58:37;;;;;;;16.25;4.03;;;;;;;14.94;42.37;99235.48;1649594;86;22261;-65